Boston, MA

4:41 AM EST on January 31, 2015 (GMT -0500)
Southie | Change Station
CLOSE
Current Station
Personal Weather Station
Location: Boston, MA
Elevation: 33 ft
Nearby Weather Stations

Elev 33 ft 42.34 °N, 71.04 °W | Updated 2 seconds ago

Light Snow
Light Snow
13.5 °F
Feels Like -2 °F
N
14.1
Wind Variable Wind from WNW
Gusts 29.0 mph

Today
High -- | Low -- °F
--% Chance of Precip.
Yesterday
High -- | Low -- °F
Precip. -- in
6:58 AM 4:56 PM
Waxing Gibbous, 88% visible
Pressure 29.75 in
Visibility 0.8 miles
Clouds Overcast 3800 ft
Windchill -2 °F
Dew Point 8 °F
Humidity 77%
Rainfall 0.00 in
Snow Depth Not available.
UV 0 out of 12
Pollen .10 out of 12
Air Quality Not available.
Flu Activity Not available.
SPECI KBOS 310913Z 30021G36KT 3/4SM R04R/P6000FT -SN OVC038 M10/M14 A2975 RMK AO2 PK WND 32036/0907 P0000

More Conditions Fewer Conditions

Pressure 29.75 in
Visibility 0.8 miles
Clouds Overcast 3800 ft
Windchill -2 °F
Dew Point 8 °F
Humidity 77%
Rainfall 0.00 in
Snow Depth Not available.
UV 0 out of 12
Pollen .10 out of 12
Air Quality Not available.
Flu Activity Not available.
SPECI KBOS 310913Z 30021G36KT 3/4SM R04R/P6000FT -SN OVC038 M10/M14 A2975 RMK AO2 PK WND 32036/0907 P0000

More Conditions Fewer Conditions

10-Day Weather Forecast

Almanac

Astronomy

Jan. 31, 2015 Rise Set
Actual Time
Civil Twilight
Nautical Twilight
Astronomical Twilight
Moon
Length of Visible Light
Length of Day
Tomorrow will be .
, % of the Moon is Illuminated

Today's Extremes

State Highs State Lows

Community

WunderPhotos

Upload Photos

1,792,021 photos uploaded!

WunderBlogs® & News

Nearby

Air Quality

  Air Quality AQ Index Pollutant
Not available.

Snow Depth

Station Depth Elevation

Earthquake Activity

City Distance Mag. Time & Date
Minimum magnitude displayed is 2.5.

Coastal Water Temperatures

Place Temperature

Nearby Weather Stations